createdAt,value
2018-06-02T00:00:53.584Z,19.70
2018-06-02T00:03:22.815Z,19.70
2018-06-02T00:05:51.893Z,19.70
2018-06-02T00:08:21.784Z,19.60
2018-06-02T00:10:51.704Z,19.50
2018-06-02T00:13:20.812Z,19.50
2018-06-02T00:15:50.672Z,19.40
2018-06-02T00:18:19.752Z,19.40
2018-06-02T00:20:48.945Z,19.40
2018-06-02T00:23:22.896Z,19.40
2018-06-02T00:25:51.980Z,19.50
2018-06-02T00:28:21.087Z,19.40
2018-06-02T00:30:50.199Z,19.40
2018-06-02T00:33:19.274Z,19.40
2018-06-02T00:35:49.143Z,19.40
2018-06-02T00:38:18.311Z,19.40
2018-06-02T00:40:47.383Z,19.40
2018-06-02T00:43:16.475Z,19.40
2018-06-02T00:45:45.580Z,19.40
2018-06-02T00:48:14.655Z,19.40
2018-06-02T00:50:44.587Z,19.30
2018-06-02T00:53:14.430Z,19.20
2018-06-02T00:55:44.272Z,19.20
2018-06-02T00:58:13.360Z,19.20
2018-06-02T01:00:43.260Z,19.20
2018-06-02T01:03:12.343Z,19.20
2018-06-02T01:05:41.463Z,19.20
2018-06-02T01:08:10.576Z,19.20
2018-06-02T01:10:39.731Z,19.20
2018-06-02T01:13:08.816Z,19.10
2018-06-02T01:15:37.891Z,19.10
2018-06-02T01:18:06.963Z,19.10
2018-06-02T01:20:36.860Z,19.00
2018-06-02T01:23:05.969Z,18.90
2018-06-02T01:25:35.151Z,19.00
2018-06-02T01:28:04.277Z,18.90
2018-06-02T01:30:33.389Z,18.90
2018-06-02T01:33:02.554Z,18.90
2018-06-02T01:35:31.631Z,18.90
2018-06-02T01:38:00.766Z,18.90
2018-06-02T01:40:30.634Z,18.90
2018-06-02T01:42:59.834Z,18.90
2018-06-02T01:45:28.924Z,18.90
2018-06-02T01:47:58.796Z,19.00
2018-06-02T01:50:27.933Z,18.90
2018-06-02T01:52:57.096Z,19.00
2018-06-02T01:55:26.241Z,19.00
2018-06-02T01:57:55.353Z,19.00
2018-06-02T02:00:24.468Z,19.00
2018-06-02T02:02:53.556Z,19.00
2018-06-02T02:05:22.720Z,19.00
2018-06-02T02:07:52.625Z,19.00
2018-06-02T02:10:21.843Z,18.90
2018-06-02T02:12:50.939Z,18.90
2018-06-02T02:15:20.113Z,19.00
2018-06-02T02:17:49.300Z,19.00
2018-06-02T02:20:18.383Z,19.00
2018-06-02T02:22:47.497Z,18.90
2018-06-02T02:25:16.604Z,18.90
2018-06-02T02:27:45.780Z,18.90
2018-06-02T02:30:14.915Z,18.90
2018-06-02T02:32:44.012Z,18.90
2018-06-02T02:35:13.168Z,18.90
2018-06-02T02:37:43.060Z,18.90
2018-06-02T02:40:12.943Z,18.90
2018-06-02T02:42:42.041Z,18.90
2018-06-02T02:45:11.908Z,18.90
2018-06-02T02:47:41.065Z,18.90
2018-06-02T02:50:10.217Z,18.90
2018-06-02T02:52:39.397Z,19.00
2018-06-02T02:55:09.252Z,19.00
2018-06-02T02:57:38.358Z,19.00
2018-06-02T03:00:07.501Z,19.00
2018-06-02T03:02:36.603Z,19.00
2018-06-02T03:05:05.740Z,19.00
2018-06-02T03:07:34.832Z,19.00
2018-06-02T03:10:03.924Z,19.00
2018-06-02T03:12:33.060Z,19.00
2018-06-02T03:15:02.171Z,19.10
2018-06-02T03:17:31.292Z,19.10
2018-06-02T03:20:00.491Z,19.20
2018-06-02T03:22:29.580Z,19.20
2018-06-02T03:24:58.706Z,19.30
2018-06-02T03:27:27.878Z,19.30
2018-06-02T03:29:57.692Z,19.30
2018-06-02T03:32:26.800Z,19.30
2018-06-02T03:34:56.689Z,19.30
2018-06-02T03:37:25.794Z,19.30
2018-06-02T03:39:54.904Z,19.30
2018-06-02T03:42:23.991Z,19.40
2018-06-02T03:44:53.121Z,19.40
2018-06-02T03:47:22.288Z,19.30
2018-06-02T03:49:52.168Z,19.30
2018-06-02T03:52:21.275Z,19.30
2018-06-02T03:54:50.360Z,19.30
2018-06-02T03:57:20.335Z,19.30
2018-06-02T03:59:49.468Z,19.30
2018-06-02T04:02:18.568Z,19.30
2018-06-02T04:04:47.673Z,19.40
2018-06-02T04:07:16.772Z,19.50
2018-06-02T04:09:45.879Z,19.50
2018-06-02T04:12:15.017Z,19.50
2018-06-02T04:14:44.139Z,19.60
2018-06-02T04:17:13.217Z,19.70
2018-06-02T04:19:42.295Z,19.60
2018-06-02T04:22:11.439Z,19.60
2018-06-02T04:24:40.543Z,19.70
2018-06-02T04:27:09.657Z,19.80
2018-06-02T04:29:38.791Z,19.80
2018-06-02T04:32:07.936Z,19.80
2018-06-02T04:34:37.809Z,19.80
2018-06-02T04:37:07.652Z,19.90
2018-06-02T04:39:36.798Z,19.90
2018-06-02T04:42:06.669Z,20.00
2018-06-02T04:44:35.795Z,20.00
2018-06-02T04:47:04.882Z,20.00
2018-06-02T04:49:34.049Z,20.10
2018-06-02T04:52:04.046Z,20.10
2018-06-02T04:54:33.137Z,20.10
2018-06-02T04:57:02.219Z,20.20
2018-06-02T04:59:32.129Z,20.20
2018-06-02T05:02:01.215Z,20.10
2018-06-02T05:04:30.384Z,20.20
2018-06-02T05:06:59.476Z,20.10
2018-06-02T05:09:29.444Z,20.10
2018-06-02T05:11:58.542Z,20.10
2018-06-02T05:14:27.624Z,20.10
2018-06-02T05:16:57.519Z,20.20
2018-06-02T05:19:26.656Z,20.20
2018-06-02T05:21:55.736Z,20.20
2018-06-02T05:24:24.858Z,20.20
2018-06-02T05:26:53.981Z,20.30
2018-06-02T05:29:23.075Z,20.30
2018-06-02T05:31:52.190Z,20.40
2018-06-02T05:34:21.834Z,20.40
2018-06-02T05:36:51.694Z,20.50
2018-06-02T05:39:20.854Z,20.50
2018-06-02T05:41:50.051Z,20.50
2018-06-02T05:44:19.168Z,20.50
2018-06-02T05:46:48.344Z,20.50
2018-06-02T05:49:18.197Z,20.60
2018-06-02T05:51:47.295Z,20.60
2018-06-02T05:54:16.443Z,20.60
2018-06-02T05:56:45.548Z,20.50
2018-06-02T05:59:14.631Z,20.60
2018-06-02T06:01:43.736Z,20.60
2018-06-02T06:04:12.822Z,20.70
2018-06-02T06:06:42.194Z,20.80
2018-06-02T06:09:11.574Z,20.90
2018-06-02T06:11:40.676Z,21.00
2018-06-02T06:14:09.782Z,21.00
2018-06-02T06:16:39.229Z,21.10
2018-06-02T06:19:08.386Z,21.10
2018-06-02T06:21:38.311Z,21.20
2018-06-02T06:24:07.456Z,21.20
2018-06-02T06:26:36.595Z,21.20
2018-06-02T06:29:06.922Z,21.20
2018-06-02T06:31:36.056Z,21.30
2018-06-02T06:34:05.359Z,21.30
2018-06-02T06:36:34.560Z,21.20
2018-06-02T06:39:03.699Z,21.30
2018-06-02T06:41:32.842Z,21.40
2018-06-02T06:44:02.702Z,21.40
2018-06-02T06:46:31.913Z,21.40
2018-06-02T06:49:01.069Z,21.50
2018-06-02T06:51:30.160Z,21.60
2018-06-02T06:53:59.367Z,21.70
2018-06-02T06:56:28.523Z,21.80
2018-06-02T06:58:58.402Z,22.00
2018-06-02T07:01:27.540Z,22.00
2018-06-02T07:03:58.675Z,22.00
2018-06-02T07:06:27.781Z,22.10
2018-06-02T07:08:56.930Z,22.20
2018-06-02T07:11:26.033Z,22.30
2018-06-02T07:13:55.496Z,22.40
2018-06-02T07:16:25.374Z,22.50
2018-06-02T07:18:54.477Z,22.50
2018-06-02T07:21:24.582Z,22.50
2018-06-02T07:23:53.659Z,22.50
2018-06-02T07:26:22.786Z,22.50
2018-06-02T07:28:51.876Z,22.60
2018-06-02T07:31:20.995Z,22.70
2018-06-02T07:33:50.850Z,22.90
2018-06-02T07:36:19.933Z,22.90
2018-06-02T07:38:49.078Z,23.00
2018-06-02T07:41:18.268Z,23.00
2018-06-02T07:43:48.155Z,23.40
2018-06-02T07:46:17.338Z,23.40
2018-06-02T07:48:46.456Z,23.60
2018-06-02T07:51:15.580Z,23.70
2018-06-02T07:53:45.432Z,23.90
2018-06-02T07:56:14.546Z,23.90
2018-06-02T07:58:43.725Z,23.90
2018-06-02T08:01:12.833Z,24.00
2018-06-02T08:03:42.633Z,24.00
2018-06-02T08:06:11.753Z,24.10
2018-06-02T08:08:40.899Z,24.10
2018-06-02T08:11:09.964Z,24.20
2018-06-02T08:13:39.035Z,24.20
2018-06-02T08:16:08.113Z,24.20
2018-06-02T08:18:37.196Z,24.20
2018-06-02T08:21:06.337Z,24.30
2018-06-02T08:23:35.444Z,24.50
2018-06-02T08:26:04.694Z,24.70
2018-06-02T08:28:33.805Z,25.00
2018-06-02T08:31:02.948Z,25.10
2018-06-02T08:33:32.235Z,25.20
2018-06-02T08:36:02.184Z,25.60
2018-06-02T08:38:32.176Z,25.70
2018-06-02T08:41:01.647Z,25.70
2018-06-02T08:43:31.169Z,25.80
2018-06-02T08:46:00.300Z,25.90
2018-06-02T08:48:29.456Z,26.10
2018-06-02T08:51:00.265Z,26.10
2018-06-02T08:53:29.464Z,26.20
2018-06-02T08:55:58.552Z,26.20
2018-06-02T08:58:28.432Z,26.20
2018-06-02T09:00:57.582Z,26.20
2018-06-02T09:03:27.437Z,26.30
2018-06-02T09:05:56.594Z,26.30
2018-06-02T09:08:25.685Z,26.30
2018-06-02T09:10:54.787Z,26.50
2018-06-02T09:13:23.925Z,26.50
2018-06-02T09:15:53.045Z,26.50
2018-06-02T09:18:22.190Z,26.60
2018-06-02T09:20:51.281Z,26.80
2018-06-02T09:23:21.129Z,26.90
2018-06-02T09:25:51.001Z,26.70
2018-06-02T09:28:20.084Z,26.70
2018-06-02T09:30:49.264Z,26.90
2018-06-02T09:33:20.446Z,27.30
2018-06-02T09:35:49.569Z,27.30
2018-06-02T09:38:18.690Z,27.40
2018-06-02T09:40:47.809Z,27.50
2018-06-02T09:43:16.994Z,27.40
2018-06-02T09:45:46.088Z,27.30
2018-06-02T09:48:15.959Z,27.40
2018-06-02T09:50:45.064Z,27.40
2018-06-02T09:53:14.781Z,27.50
2018-06-02T09:55:43.868Z,27.60
2018-06-02T09:58:13.708Z,27.40
2018-06-02T10:00:42.927Z,27.40
2018-06-02T10:03:12.587Z,27.30
2018-06-02T10:05:41.697Z,27.40
2018-06-02T10:08:11.496Z,27.60
2018-06-02T10:10:40.689Z,27.70
2018-06-02T10:13:09.867Z,27.50
2018-06-02T10:15:38.990Z,27.20
2018-06-02T10:18:08.862Z,26.80
2018-06-02T10:20:38.017Z,26.80
2018-06-02T10:23:07.117Z,26.50
2018-06-02T10:28:34.607Z,26.10
2018-06-02T10:31:03.710Z,25.90
2018-06-02T10:33:32.812Z,25.60
2018-06-02T10:36:01.931Z,25.50
2018-06-02T10:38:31.012Z,25.50
2018-06-02T10:41:00.165Z,25.30
2018-06-02T10:43:29.290Z,25.30
2018-06-02T10:45:58.473Z,25.30
2018-06-02T10:48:27.584Z,25.20
2018-06-02T10:50:56.697Z,25.10
2018-06-02T10:53:25.845Z,25.00
2018-06-02T10:55:54.956Z,25.00
2018-06-02T10:58:24.125Z,25.00
2018-06-02T11:00:54.033Z,24.90
2018-06-02T11:03:23.182Z,24.90
2018-06-02T11:05:52.264Z,24.80
2018-06-02T11:08:21.371Z,24.80
2018-06-02T11:10:50.504Z,24.80
2018-06-02T11:13:19.742Z,24.90
2018-06-02T11:15:48.883Z,24.90
2018-06-02T11:18:18.733Z,24.90
2018-06-02T11:20:47.817Z,24.90
2018-06-02T11:23:17.224Z,24.90
2018-06-02T11:25:46.386Z,24.90
2018-06-02T11:28:15.533Z,25.00
2018-06-02T11:30:44.647Z,25.10
2018-06-02T11:33:14.437Z,25.20
2018-06-02T11:35:43.618Z,25.20
2018-06-02T11:38:13.478Z,25.20
2018-06-02T11:40:42.654Z,25.20
2018-06-02T11:43:12.583Z,25.30
2018-06-02T11:45:42.519Z,25.40
2018-06-02T11:48:11.616Z,25.40
2018-06-02T11:50:41.472Z,25.50
2018-06-02T11:53:10.641Z,25.50
2018-06-02T11:55:39.737Z,25.60
2018-06-02T11:58:08.936Z,25.60
2018-06-02T12:00:38.030Z,25.70
2018-06-02T12:03:07.937Z,25.80
2018-06-02T12:05:37.025Z,25.80
2018-06-02T12:08:06.103Z,25.80
2018-06-02T12:10:35.186Z,25.70
2018-06-02T12:13:05.079Z,25.60
2018-06-02T12:15:34.222Z,25.60
2018-06-02T12:18:03.395Z,25.60
2018-06-02T12:20:32.502Z,25.70
2018-06-02T12:23:02.530Z,25.80
2018-06-02T12:25:31.654Z,25.70
2018-06-02T12:28:01.552Z,25.50
2018-06-02T12:30:31.475Z,25.50
2018-06-02T12:33:00.552Z,25.40
2018-06-02T12:35:29.655Z,25.40
2018-06-02T12:37:58.743Z,25.40
2018-06-02T12:40:27.894Z,25.40
2018-06-02T12:42:57.007Z,25.50
2018-06-02T12:45:26.131Z,25.60
2018-06-02T12:47:55.288Z,25.70
2018-06-02T12:50:24.413Z,25.70
2018-06-02T12:52:54.288Z,25.70
2018-06-02T12:55:23.395Z,25.70
2018-06-02T12:57:52.475Z,25.70
2018-06-02T13:00:21.653Z,25.70
2018-06-02T13:02:50.763Z,25.70
2018-06-02T13:05:19.959Z,25.70
2018-06-02T13:07:49.072Z,25.70
2018-06-02T13:10:18.214Z,25.40
2018-06-02T13:12:48.137Z,25.30
2018-06-02T13:15:18.124Z,25.20
2018-06-02T13:17:47.312Z,25.20
2018-06-02T13:20:16.407Z,25.10
2018-06-02T13:22:46.258Z,25.10
2018-06-02T13:25:15.416Z,25.10
2018-06-02T13:27:44.573Z,25.20
2018-06-02T13:30:13.689Z,25.10
2018-06-02T13:32:42.810Z,25.00
2018-06-02T13:35:11.962Z,25.10
2018-06-02T13:37:41.080Z,25.10
2018-06-02T13:40:10.261Z,25.10
2018-06-02T13:42:39.371Z,25.10
2018-06-02T13:45:08.515Z,25.00
2018-06-02T13:47:37.658Z,24.80
2018-06-02T13:50:06.824Z,24.70
2018-06-02T13:52:35.936Z,24.70
2018-06-02T13:55:05.021Z,24.70
2018-06-02T13:57:34.148Z,24.80
2018-06-02T14:00:03.266Z,24.90
2018-06-02T14:02:33.213Z,25.00
2018-06-02T14:05:03.062Z,25.00
2018-06-02T14:07:32.907Z,25.00
2018-06-02T14:10:02.012Z,25.00
2018-06-02T14:12:31.246Z,25.10
2018-06-02T14:15:00.322Z,25.20
2018-06-02T14:17:29.500Z,25.20
2018-06-02T14:19:58.617Z,25.30
2018-06-02T14:22:27.777Z,25.30
2018-06-02T14:24:56.900Z,25.20
2018-06-02T14:27:26.007Z,25.40
2018-06-02T14:29:55.120Z,25.50
2018-06-02T14:32:24.276Z,25.70
2018-06-02T14:34:53.421Z,25.80
2018-06-02T14:37:22.588Z,25.90
2018-06-02T14:39:51.665Z,25.80
2018-06-02T14:42:20.773Z,25.70
2018-06-02T14:44:49.886Z,25.70
2018-06-02T14:47:19.157Z,25.60
2018-06-02T14:49:49.042Z,25.50
2018-06-02T14:52:18.232Z,25.50
2018-06-02T14:54:47.353Z,25.50
2018-06-02T14:57:16.471Z,25.50
2018-06-02T14:59:45.561Z,25.50
2018-06-02T15:02:14.668Z,25.40
2018-06-02T15:04:43.777Z,25.40
2018-06-02T15:07:12.981Z,25.50
2018-06-02T15:09:42.063Z,25.60
2018-06-02T15:12:11.195Z,25.80
2018-06-02T15:14:41.058Z,25.60
2018-06-02T15:17:10.149Z,25.70
2018-06-02T15:19:39.256Z,25.60
2018-06-02T15:22:08.381Z,25.40
2018-06-02T15:24:37.493Z,25.50
2018-06-02T15:27:06.704Z,25.60
2018-06-02T15:29:35.778Z,25.70
2018-06-02T15:32:04.883Z,25.90
2018-06-02T15:34:34.031Z,26.00
2018-06-02T15:37:03.141Z,26.10
2018-06-02T15:39:33.041Z,26.10
2018-06-02T15:42:02.942Z,26.40
2018-06-02T15:44:32.039Z,26.40
2018-06-02T15:47:01.217Z,26.60
2018-06-02T15:49:30.339Z,26.60
2018-06-02T15:51:59.461Z,26.60
2018-06-02T15:54:28.549Z,26.50
2018-06-02T15:56:57.683Z,26.30
2018-06-02T15:59:26.757Z,26.10
2018-06-02T16:01:55.916Z,26.00
2018-06-02T16:04:25.089Z,26.00
2018-06-02T16:06:54.187Z,26.00
2018-06-02T16:09:24.100Z,25.60
2018-06-02T16:11:53.259Z,25.60
2018-06-02T16:14:22.392Z,25.60
2018-06-02T16:16:52.302Z,25.50
2018-06-02T16:19:21.416Z,25.50
2018-06-02T16:21:50.591Z,25.70
2018-06-02T16:24:20.435Z,25.80
2018-06-02T16:26:49.553Z,25.80
2018-06-02T16:29:18.710Z,25.50
2018-06-02T16:31:47.841Z,25.40
2018-06-02T16:34:16.986Z,25.40
2018-06-02T16:36:46.073Z,25.30
2018-06-02T16:39:15.976Z,24.70
2018-06-02T16:41:45.055Z,24.70
2018-06-02T16:44:14.199Z,24.50
2018-06-02T16:46:43.288Z,24.30
2018-06-02T16:49:12.368Z,24.20
2018-06-02T16:51:41.468Z,24.10
2018-06-02T16:54:10.596Z,24.00
2018-06-02T16:56:39.718Z,23.90
2018-06-02T16:59:08.846Z,23.90
2018-06-02T17:01:37.974Z,23.80
2018-06-02T17:04:07.060Z,23.70
2018-06-02T17:06:37.122Z,23.50
2018-06-02T17:09:06.217Z,23.50
2018-06-02T17:11:35.348Z,23.60
2018-06-02T17:14:04.438Z,23.50
2018-06-02T17:16:33.595Z,23.50
2018-06-02T17:19:02.717Z,23.40
2018-06-02T17:21:32.778Z,23.50
2018-06-02T17:24:01.935Z,23.50
2018-06-02T17:26:31.817Z,23.30
2018-06-02T17:29:00.997Z,23.30
2018-06-02T17:31:30.125Z,23.30
2018-06-02T17:33:59.267Z,23.20
2018-06-02T17:36:28.384Z,23.20
2018-06-02T17:38:57.531Z,23.10
2018-06-02T17:41:27.462Z,22.80
2018-06-02T17:43:57.336Z,22.80
2018-06-02T17:46:26.471Z,22.80
2018-06-02T17:48:55.584Z,22.80
2018-06-02T17:51:24.733Z,22.70
2018-06-02T17:53:53.930Z,22.70
2018-06-02T17:56:23.827Z,22.70
2018-06-02T17:58:52.910Z,22.70
2018-06-02T18:01:22.017Z,22.70
2018-06-02T18:03:51.155Z,22.70
2018-06-02T18:06:20.264Z,22.60
2018-06-02T18:08:49.374Z,22.60
2018-06-02T18:11:18.488Z,22.50
2018-06-02T18:13:47.572Z,22.50
2018-06-02T18:16:16.833Z,22.40
2018-06-02T18:18:46.730Z,22.30
2018-06-02T18:21:15.891Z,22.30
2018-06-02T18:23:45.735Z,22.30
2018-06-02T18:26:14.868Z,22.30
2018-06-02T18:28:43.977Z,22.20
2018-06-02T18:31:13.129Z,22.10
2018-06-02T18:33:42.215Z,22.10
2018-06-02T18:36:11.320Z,22.10
2018-06-02T18:38:40.486Z,22.00
2018-06-02T18:41:09.632Z,21.90
2018-06-02T18:43:38.733Z,21.90
2018-06-02T18:46:07.880Z,21.80
2018-06-02T18:48:37.046Z,21.70
2018-06-02T18:51:06.176Z,21.70
2018-06-02T18:53:35.365Z,21.70
2018-06-02T18:56:04.526Z,21.60
2018-06-02T18:58:33.688Z,21.50
2018-06-02T19:01:02.883Z,21.50
2018-06-02T19:03:32.740Z,21.40
2018-06-02T19:06:01.909Z,21.30
2018-06-02T19:08:30.987Z,21.30
2018-06-02T19:11:00.096Z,21.30
2018-06-02T19:13:29.256Z,21.30
2018-06-02T19:15:58.348Z,21.30
2018-06-02T19:18:27.456Z,21.20
2018-06-02T19:20:56.565Z,21.20
2018-06-02T19:23:25.680Z,21.20
2018-06-02T19:25:54.822Z,21.20
2018-06-02T19:28:23.973Z,21.10
2018-06-02T19:30:53.862Z,21.10
2018-06-02T19:33:22.942Z,21.10
2018-06-02T19:35:52.183Z,21.10
2018-06-02T19:38:22.059Z,21.10
2018-06-02T19:40:51.210Z,21.10
2018-06-02T19:43:21.147Z,21.10
2018-06-02T19:45:50.987Z,21.10
2018-06-02T19:48:20.127Z,21.00
2018-06-02T19:50:49.295Z,21.00
2018-06-02T19:53:19.161Z,21.00
2018-06-02T19:55:48.272Z,20.90
2018-06-02T19:58:17.393Z,20.90
2018-06-02T20:00:46.496Z,21.00
2018-06-02T20:03:15.605Z,20.90
2018-06-02T20:05:44.732Z,20.90
2018-06-02T20:08:13.816Z,20.90
2018-06-02T20:10:42.946Z,20.80
2018-06-02T20:13:12.073Z,20.90
2018-06-02T20:15:41.868Z,20.80
2018-06-02T20:18:10.951Z,20.80
2018-06-02T20:20:40.815Z,20.80
2018-06-02T20:23:09.934Z,20.80
2018-06-02T20:25:39.171Z,20.90
2018-06-02T20:28:08.284Z,20.90
2018-06-02T20:30:37.419Z,21.00
2018-06-02T20:33:07.321Z,21.00
2018-06-02T20:35:37.424Z,21.00
2018-06-02T20:38:06.566Z,21.00
2018-06-02T20:40:35.667Z,21.00
2018-06-02T20:43:04.792Z,21.00
2018-06-02T20:45:33.935Z,21.00
2018-06-02T20:48:03.780Z,20.90
2018-06-02T20:50:32.942Z,20.90
2018-06-02T20:53:02.033Z,21.00
2018-06-02T20:55:31.237Z,21.00
2018-06-02T20:58:00.511Z,20.90
2018-06-02T21:00:30.439Z,20.90
2018-06-02T21:03:00.317Z,20.80
2018-06-02T21:05:29.481Z,20.80
2018-06-02T21:07:58.566Z,20.80
2018-06-02T21:10:27.677Z,20.80
2018-06-02T21:12:56.799Z,20.80
2018-06-02T21:15:26.870Z,20.80
2018-06-02T21:17:55.961Z,20.70
2018-06-02T21:20:25.804Z,20.80
2018-06-02T21:22:54.956Z,20.80
2018-06-02T21:25:24.065Z,20.80
2018-06-02T21:27:53.186Z,20.80
2018-06-02T21:30:22.352Z,20.80
2018-06-02T21:32:51.547Z,20.70
2018-06-02T21:35:20.709Z,20.70
2018-06-02T21:37:49.822Z,20.70
2018-06-02T21:40:18.962Z,20.70
2018-06-02T21:42:48.067Z,20.60
2018-06-02T21:48:17.426Z,20.70
2018-06-02T21:50:46.515Z,20.60
2018-06-02T21:53:16.419Z,20.60
2018-06-02T21:55:45.528Z,20.50
2018-06-02T21:58:14.638Z,20.50
2018-06-02T22:00:43.777Z,20.50
2018-06-02T22:03:13.117Z,20.50
2018-06-02T22:05:43.050Z,20.40
2018-06-02T22:08:12.970Z,20.30
2018-06-02T22:10:42.844Z,20.30
2018-06-02T22:13:11.974Z,20.20
2018-06-02T22:15:41.158Z,20.30
2018-06-02T22:18:10.240Z,20.20
2018-06-02T22:20:40.089Z,20.10
2018-06-02T22:23:09.164Z,20.10
2018-06-02T22:25:38.267Z,20.20
2018-06-02T22:28:07.372Z,20.10
2018-06-02T22:30:36.483Z,20.10
2018-06-02T22:33:05.680Z,20.10
2018-06-02T22:35:35.591Z,20.10
2018-06-02T22:38:04.662Z,20.10
2018-06-02T22:40:34.579Z,20.10
2018-06-02T22:43:03.696Z,20.10
2018-06-02T22:45:33.542Z,20.10
2018-06-02T22:48:03.408Z,20.10
2018-06-02T22:50:32.553Z,20.10
2018-06-02T22:53:01.692Z,20.10
2018-06-02T22:55:31.591Z,20.10
2018-06-02T22:58:00.752Z,20.10
2018-06-02T23:00:29.876Z,20.10
2018-06-02T23:02:58.971Z,20.10
2018-06-02T23:05:28.076Z,20.10
2018-06-02T23:07:57.269Z,20.10
2018-06-02T23:10:27.150Z,20.10
2018-06-02T23:12:56.333Z,20.10
2018-06-02T23:15:25.447Z,20.10
2018-06-02T23:17:54.646Z,20.10
2018-06-02T23:20:23.918Z,20.00
2018-06-02T23:22:53.050Z,20.00
2018-06-02T23:25:22.928Z,20.00
2018-06-02T23:27:52.100Z,20.00
2018-06-02T23:30:21.977Z,19.90
2018-06-02T23:32:51.144Z,19.90
2018-06-02T23:35:21.018Z,19.90
2018-06-02T23:37:50.138Z,19.90
2018-06-02T23:40:19.300Z,19.90
2018-06-02T23:42:48.442Z,19.80
2018-06-02T23:45:17.532Z,19.80
2018-06-02T23:47:46.611Z,19.80
2018-06-02T23:50:16.468Z,19.80
2018-06-02T23:52:45.595Z,19.70
2018-06-02T23:55:14.699Z,19.80
2018-06-02T23:57:43.784Z,19.80
